sensor_id;sensor_type;location;lat;lon;timestamp;pressure;altitude;pressure_sealevel;temperature;humidity
60479;BME280;46321;48.398;11.754;2023-08-06T00:01:05;95863.56;;;15.58;90.82
60479;BME280;46321;48.398;11.754;2023-08-06T00:03:30;95877.06;;;15.63;90.27
60479;BME280;46321;48.398;11.754;2023-08-06T00:05:55;95877.66;;;15.65;90.52
60479;BME280;46321;48.398;11.754;2023-08-06T00:08:20;95880.09;;;15.67;90.01
60479;BME280;46321;48.398;11.754;2023-08-06T00:10:47;95877.41;;;15.67;89.87
60479;BME280;46321;48.398;11.754;2023-08-06T00:13:12;95880.31;;;15.65;89.79
60479;BME280;46321;48.398;11.754;2023-08-06T00:15:37;95882.75;;;15.67;89.43
60479;BME280;46321;48.398;11.754;2023-08-06T00:18:02;95892.84;;;15.65;89.27
60479;BME280;46321;48.398;11.754;2023-08-06T00:20:28;95884.81;;;15.65;89.22
60479;BME280;46321;48.398;11.754;2023-08-06T00:22:53;95886.91;;;15.63;89.36
60479;BME280;46321;48.398;11.754;2023-08-06T00:25:18;95892.69;;;15.60;89.20
60479;BME280;46321;48.398;11.754;2023-08-06T00:27:43;95888.81;;;15.55;89.21
60479;BME280;46321;48.398;11.754;2023-08-06T00:30:08;95888.81;;;15.55;88.81
60479;BME280;46321;48.398;11.754;2023-08-06T00:32:34;95893.34;;;15.55;88.45
60479;BME280;46321;48.398;11.754;2023-08-06T00:34:59;95892.81;;;15.46;88.79
60479;BME280;46321;48.398;11.754;2023-08-06T00:37:24;95888.97;;;15.42;89.13
60479;BME280;46321;48.398;11.754;2023-08-06T00:39:49;95894.69;;;15.45;87.74
60479;BME280;46321;48.398;11.754;2023-08-06T00:42:14;95893.09;;;15.38;87.68
60479;BME280;46321;48.398;11.754;2023-08-06T00:44:41;95890.00;;;15.41;87.12
60479;BME280;46321;48.398;11.754;2023-08-06T00:47:06;95880.53;;;15.45;87.05
60479;BME280;46321;48.398;11.754;2023-08-06T00:49:32;95881.94;;;15.48;86.66
60479;BME280;46321;48.398;11.754;2023-08-06T00:51:58;95879.72;;;15.44;86.43
60479;BME280;46321;48.398;11.754;2023-08-06T00:54:23;95872.53;;;15.45;86.07
60479;BME280;46321;48.398;11.754;2023-08-06T00:56:49;95863.34;;;15.41;86.21
60479;BME280;46321;48.398;11.754;2023-08-06T00:59:15;95853.34;;;15.36;86.57
60479;BME280;46321;48.398;11.754;2023-08-06T01:01:40;95854.44;;;15.28;86.98
60479;BME280;46321;48.398;11.754;2023-08-06T01:04:05;95860.00;;;15.27;87.03
60479;BME280;46321;48.398;11.754;2023-08-06T01:06:57;95858.97;;;15.28;86.58
60479;BME280;46321;48.398;11.754;2023-08-06T01:11:54;95852.59;;;15.29;86.04
60479;BME280;46321;48.398;11.754;2023-08-06T01:14:33;95857.56;;;15.25;86.07
60479;BME280;46321;48.398;11.754;2023-08-06T01:16:59;95861.78;;;15.14;86.66
60479;BME280;46321;48.398;11.754;2023-08-06T01:19:26;95859.91;;;15.15;86.76
60479;BME280;46321;48.398;11.754;2023-08-06T01:21:51;95853.31;;;15.17;86.41
60479;BME280;46321;48.398;11.754;2023-08-06T01:24:16;95861.00;;;15.07;87.26
60479;BME280;46321;48.398;11.754;2023-08-06T01:26:42;95861.19;;;15.12;87.20
60479;BME280;46321;48.398;11.754;2023-08-06T01:29:15;95854.25;;;15.04;87.17
60479;BME280;46321;48.398;11.754;2023-08-06T01:31:43;95858.41;;;15.00;88.25
60479;BME280;46321;48.398;11.754;2023-08-06T01:34:09;95858.25;;;14.95;88.23
60479;BME280;46321;48.398;11.754;2023-08-06T01:36:36;95854.56;;;14.96;88.14
60479;BME280;46321;48.398;11.754;2023-08-06T01:39:01;95863.03;;;14.86;89.15
60479;BME280;46321;48.398;11.754;2023-08-06T01:41:27;95864.06;;;14.85;89.55
60479;BME280;46321;48.398;11.754;2023-08-06T01:43:52;95862.00;;;14.87;90.02
60479;BME280;46321;48.398;11.754;2023-08-06T01:46:17;95860.13;;;14.87;90.21
60479;BME280;46321;48.398;11.754;2023-08-06T01:48:42;95857.22;;;14.96;90.05
60479;BME280;46321;48.398;11.754;2023-08-06T01:51:07;95850.03;;;14.96;90.29
60479;BME280;46321;48.398;11.754;2023-08-06T01:53:33;95849.00;;;14.97;90.34
60479;BME280;46321;48.398;11.754;2023-08-06T01:55:58;95846.75;;;14.94;90.76
60479;BME280;46321;48.398;11.754;2023-08-06T01:58:23;95843.91;;;14.96;90.46
60479;BME280;46321;48.398;11.754;2023-08-06T02:00:49;95851.88;;;14.96;90.39
60479;BME280;46321;48.398;11.754;2023-08-06T02:03:14;95851.88;;;14.96;90.12
60479;BME280;46321;48.398;11.754;2023-08-06T02:05:39;95852.09;;;14.94;91.04
60479;BME280;46321;48.398;11.754;2023-08-06T02:08:04;95857.59;;;14.99;91.21
60479;BME280;46321;48.398;11.754;2023-08-06T02:10:30;95858.84;;;14.97;90.92
60479;BME280;46321;48.398;11.754;2023-08-06T02:12:55;95849.88;;;14.91;91.15
60479;BME280;46321;48.398;11.754;2023-08-06T02:15:20;95846.81;;;14.87;91.41
60479;BME280;46321;48.398;11.754;2023-08-06T02:17:45;95839.66;;;14.88;90.87
60479;BME280;46321;48.398;11.754;2023-08-06T02:20:10;95848.03;;;14.92;90.64
60479;BME280;46321;48.398;11.754;2023-08-06T02:22:36;95840.63;;;14.94;90.49
60479;BME280;46321;48.398;11.754;2023-08-06T02:25:01;95845.97;;;14.94;90.18
60479;BME280;46321;48.398;11.754;2023-08-06T02:27:26;95845.38;;;14.92;89.97
60479;BME280;46321;48.398;11.754;2023-08-06T02:29:51;95842.53;;;14.86;89.98
60479;BME280;46321;48.398;11.754;2023-08-06T02:32:16;95833.09;;;14.84;89.63
60479;BME280;46321;48.398;11.754;2023-08-06T02:34:41;95835.75;;;14.84;89.76
60479;BME280;46321;48.398;11.754;2023-08-06T02:37:07;95833.72;;;14.86;89.44
60479;BME280;46321;48.398;11.754;2023-08-06T02:39:32;95838.22;;;14.85;89.43
60479;BME280;46321;48.398;11.754;2023-08-06T02:41:58;95828.63;;;14.84;89.76
60479;BME280;46321;48.398;11.754;2023-08-06T02:44:26;95820.63;;;14.84;89.35
60479;BME280;46321;48.398;11.754;2023-08-06T02:46:52;95818.16;;;14.83;89.28
60479;BME280;46321;48.398;11.754;2023-08-06T02:49:17;95806.09;;;14.80;89.27
60479;BME280;46321;48.398;11.754;2023-08-06T02:51:44;95802.84;;;14.78;89.12
60479;BME280;46321;48.398;11.754;2023-08-06T02:54:09;95805.94;;;14.75;88.88
60479;BME280;46321;48.398;11.754;2023-08-06T02:56:34;95803.50;;;14.73;89.17
60479;BME280;46321;48.398;11.754;2023-08-06T02:58:59;95803.91;;;14.70;88.99
60479;BME280;46321;48.398;11.754;2023-08-06T03:01:25;95798.34;;;14.72;88.68
60479;BME280;46321;48.398;11.754;2023-08-06T03:03:51;95797.75;;;14.70;88.98
60479;BME280;46321;48.398;11.754;2023-08-06T03:06:16;95790.81;;;14.69;88.64
60479;BME280;46321;48.398;11.754;2023-08-06T03:08:42;95778.22;;;14.57;89.40
60479;BME280;46321;48.398;11.754;2023-08-06T03:11:07;95774.38;;;14.53;89.76
60479;BME280;46321;48.398;11.754;2023-08-06T03:13:32;95778.03;;;14.52;89.67
60479;BME280;46321;48.398;11.754;2023-08-06T03:15:58;95777.03;;;14.53;89.70
60479;BME280;46321;48.398;11.754;2023-08-06T03:18:24;95781.97;;;14.49;89.77
60479;BME280;46321;48.398;11.754;2023-08-06T03:20:50;95786.63;;;14.54;89.35
60479;BME280;46321;48.398;11.754;2023-08-06T03:23:16;95789.16;;;14.49;89.48
60479;BME280;46321;48.398;11.754;2023-08-06T03:25:41;95793.06;;;14.46;89.59
60479;BME280;46321;48.398;11.754;2023-08-06T03:28:06;95781.75;;;14.51;89.10
60479;BME280;46321;48.398;11.754;2023-08-06T03:30:31;95782.41;;;14.46;89.29
60479;BME280;46321;48.398;11.754;2023-08-06T03:32:56;95793.88;;;14.47;89.28
60479;BME280;46321;48.398;11.754;2023-08-06T03:35:22;95785.66;;;14.48;89.33
60479;BME280;46321;48.398;11.754;2023-08-06T03:37:47;95780.63;;;14.40;89.80
60479;BME280;46321;48.398;11.754;2023-08-06T03:40:13;95782.47;;;14.39;89.78
60479;BME280;46321;48.398;11.754;2023-08-06T03:42:38;95782.09;;;14.36;89.63
60479;BME280;46321;48.398;11.754;2023-08-06T03:47:31;95788.66;;;14.33;89.47
60479;BME280;46321;48.398;11.754;2023-08-06T03:49:56;95782.50;;;14.33;89.45
60479;BME280;46321;48.398;11.754;2023-08-06T03:52:21;95781.38;;;14.22;89.98
60479;BME280;46321;48.398;11.754;2023-08-06T03:54:46;95779.47;;;14.29;89.39
60479;BME280;46321;48.398;11.754;2023-08-06T03:57:12;95782.94;;;14.29;89.31
60479;BME280;46321;48.398;11.754;2023-08-06T03:59:37;95777.22;;;14.26;89.64
60479;BME280;46321;48.398;11.754;2023-08-06T04:02:02;95773.97;;;14.24;89.27
60479;BME280;46321;48.398;11.754;2023-08-06T04:04:27;95775.16;;;14.28;89.04
60479;BME280;46321;48.398;11.754;2023-08-06T04:06:53;95773.75;;;14.25;89.18
60479;BME280;46321;48.398;11.754;2023-08-06T04:09:18;95770.72;;;14.22;89.14
60479;BME280;46321;48.398;11.754;2023-08-06T04:11:43;95766.47;;;14.14;89.37
60479;BME280;46321;48.398;11.754;2023-08-06T04:14:08;95770.41;;;14.11;89.84
60479;BME280;46321;48.398;11.754;2023-08-06T04:16:33;95779.41;;;14.10;89.63
60479;BME280;46321;48.398;11.754;2023-08-06T04:18:58;95782.09;;;14.03;89.79
60479;BME280;46321;48.398;11.754;2023-08-06T04:21:24;95780.25;;;14.04;90.18
60479;BME280;46321;48.398;11.754;2023-08-06T04:23:49;95787.63;;;14.02;89.99
60479;BME280;46321;48.398;11.754;2023-08-06T04:26:14;95789.25;;;14.03;89.91
60479;BME280;46321;48.398;11.754;2023-08-06T04:28:39;95789.47;;;14.01;90.32
60479;BME280;46321;48.398;11.754;2023-08-06T04:31:05;95782.09;;;14.03;90.19
60479;BME280;46321;48.398;11.754;2023-08-06T04:33:30;95783.13;;;14.02;90.43
60479;BME280;46321;48.398;11.754;2023-08-06T04:35:55;95790.31;;;14.02;90.31
60479;BME280;46321;48.398;11.754;2023-08-06T04:38:20;95782.69;;;14.05;90.73
60479;BME280;46321;48.398;11.754;2023-08-06T04:40:46;95779.41;;;14.10;90.29
60479;BME280;46321;48.398;11.754;2023-08-06T04:43:11;95785.59;;;14.04;90.73
60479;BME280;46321;48.398;11.754;2023-08-06T04:45:36;95775.94;;;14.03;91.47
60479;BME280;46321;48.398;11.754;2023-08-06T04:48:01;95773.88;;;14.05;91.32
60479;BME280;46321;48.398;11.754;2023-08-06T04:50:26;95771.44;;;14.03;91.84
60479;BME280;46321;48.398;11.754;2023-08-06T04:52:52;95771.19;;;14.12;90.94
60479;BME280;46321;48.398;11.754;2023-08-06T04:55:17;95777.56;;;14.11;90.73
60479;BME280;46321;48.398;11.754;2023-08-06T04:57:42;95776.47;;;14.18;90.02
60479;BME280;46321;48.398;11.754;2023-08-06T05:00:07;95773.56;;;14.27;89.31
60479;BME280;46321;48.398;11.754;2023-08-06T05:02:32;95776.38;;;14.32;88.90
60479;BME280;46321;48.398;11.754;2023-08-06T05:04:59;95767.50;;;14.38;89.06
60479;BME280;46321;48.398;11.754;2023-08-06T05:07:24;95770.34;;;14.43;89.29
60479;BME280;46321;48.398;11.754;2023-08-06T05:09:49;95770.81;;;14.59;88.50
60479;BME280;46321;48.398;11.754;2023-08-06T05:12:14;95774.53;;;14.58;87.79
60479;BME280;46321;48.398;11.754;2023-08-06T05:14:40;95772.88;;;14.57;87.89
60479;BME280;46321;48.398;11.754;2023-08-06T05:17:05;95773.06;;;14.62;88.10
60479;BME280;46321;48.398;11.754;2023-08-06T05:19:30;95780.34;;;14.74;87.57
60479;BME280;46321;48.398;11.754;2023-08-06T05:21:55;95771.06;;;14.76;87.27
60479;BME280;46321;48.398;11.754;2023-08-06T05:24:20;95775.34;;;14.84;87.44
60479;BME280;46321;48.398;11.754;2023-08-06T05:26:46;95783.97;;;14.80;86.52
60479;BME280;46321;48.398;11.754;2023-08-06T05:29:12;95781.25;;;14.86;86.46
60479;BME280;46321;48.398;11.754;2023-08-06T05:31:37;95783.34;;;14.84;86.24
60479;BME280;46321;48.398;11.754;2023-08-06T05:34:02;95778.81;;;14.85;86.41
60479;BME280;46321;48.398;11.754;2023-08-06T05:36:28;95781.66;;;14.83;86.56
60479;BME280;46321;48.398;11.754;2023-08-06T05:38:53;95779.63;;;14.85;86.42
60479;BME280;46321;48.398;11.754;2023-08-06T05:41:18;95782.47;;;14.84;86.31
60479;BME280;46321;48.398;11.754;2023-08-06T05:43:43;95775.34;;;14.84;86.53
60479;BME280;46321;48.398;11.754;2023-08-06T05:46:08;95779.00;;;14.83;86.53
60479;BME280;46321;48.398;11.754;2023-08-06T05:48:34;95772.22;;;14.87;85.88
60479;BME280;46321;48.398;11.754;2023-08-06T05:50:59;95774.88;;;14.87;85.83
60479;BME280;46321;48.398;11.754;2023-08-06T05:53:24;95769.13;;;14.91;85.52
60479;BME280;46321;48.398;11.754;2023-08-06T05:55:49;95772.38;;;14.93;84.81
60479;BME280;46321;48.398;11.754;2023-08-06T05:58:15;95768.78;;;14.80;85.18
60479;BME280;46321;48.398;11.754;2023-08-06T06:00:40;95782.44;;;14.91;84.55
60479;BME280;46321;48.398;11.754;2023-08-06T06:03:05;95774.63;;;14.96;84.96
60479;BME280;46321;48.398;11.754;2023-08-06T06:05:30;95778.09;;;14.96;84.48
60479;BME280;46321;48.398;11.754;2023-08-06T06:07:55;95769.72;;;14.93;83.91
60479;BME280;46321;48.398;11.754;2023-08-06T06:10:21;95773.63;;;14.90;84.78
60479;BME280;46321;48.398;11.754;2023-08-06T06:12:46;95784.97;;;14.79;84.86
60479;BME280;46321;48.398;11.754;2023-08-06T06:15:11;95775.94;;;14.86;84.29
60479;BME280;46321;48.398;11.754;2023-08-06T06:17:36;95777.13;;;14.91;84.43
60479;BME280;46321;48.398;11.754;2023-08-06T06:20:01;95782.88;;;14.87;84.88
60479;BME280;46321;48.398;11.754;2023-08-06T06:22:29;95778.31;;;14.95;84.29
60479;BME280;46321;48.398;11.754;2023-08-06T06:24:54;95778.69;;;14.98;84.34
60479;BME280;46321;48.398;11.754;2023-08-06T06:27:19;95782.00;;;14.94;84.13
60479;BME280;46321;48.398;11.754;2023-08-06T06:29:44;95784.69;;;14.94;85.00
60479;BME280;46321;48.398;11.754;2023-08-06T06:32:09;95785.28;;;14.96;84.71
60479;BME280;46321;48.398;11.754;2023-08-06T06:34:35;95774.22;;;14.92;84.38
60479;BME280;46321;48.398;11.754;2023-08-06T06:37:00;95786.09;;;14.96;84.90
60479;BME280;46321;48.398;11.754;2023-08-06T06:39:25;95784.38;;;15.02;83.98
60479;BME280;46321;48.398;11.754;2023-08-06T06:41:51;95776.41;;;15.02;83.31
60479;BME280;46321;48.398;11.754;2023-08-06T06:44:16;95782.53;;;15.03;83.44
60479;BME280;46321;48.398;11.754;2023-08-06T06:46:41;95778.41;;;15.07;83.46
60479;BME280;46321;48.398;11.754;2023-08-06T06:49:06;95785.13;;;15.09;83.59
60479;BME280;46321;48.398;11.754;2023-08-06T06:51:31;95782.47;;;15.09;83.30
60479;BME280;46321;48.398;11.754;2023-08-06T06:53:57;95789.06;;;15.07;83.13
60479;BME280;46321;48.398;11.754;2023-08-06T06:56:22;95785.34;;;15.08;83.19
60479;BME280;46321;48.398;11.754;2023-08-06T06:58:47;95783.88;;;15.12;82.66
60479;BME280;46321;48.398;11.754;2023-08-06T07:01:12;95780.66;;;15.03;82.48
60479;BME280;46321;48.398;11.754;2023-08-06T07:03:37;95775.88;;;15.12;82.43
60479;BME280;46321;48.398;11.754;2023-08-06T07:06:02;95778.91;;;15.16;82.22
60479;BME280;46321;48.398;11.754;2023-08-06T07:08:28;95772.53;;;15.17;81.90
60479;BME280;46321;48.398;11.754;2023-08-06T07:11:03;95767.78;;;15.19;82.01
60479;BME280;46321;48.398;11.754;2023-08-06T07:13:29;95766.34;;;15.23;81.85
60479;BME280;46321;48.398;11.754;2023-08-06T07:15:54;95769.50;;;15.32;81.65
60479;BME280;46321;48.398;11.754;2023-08-06T07:18:20;95768.38;;;15.40;82.04
60479;BME280;46321;48.398;11.754;2023-08-06T07:20:49;95763.13;;;15.52;81.83
60479;BME280;46321;48.398;11.754;2023-08-06T07:23:14;95758.38;;;15.54;81.80
60479;BME280;46321;48.398;11.754;2023-08-06T07:25:39;95754.34;;;15.63;81.30
60479;BME280;46321;48.398;11.754;2023-08-06T07:28:04;95748.47;;;15.73;80.50
60479;BME280;46321;48.398;11.754;2023-08-06T07:30:30;95751.94;;;15.74;79.77
60479;BME280;46321;48.398;11.754;2023-08-06T07:32:55;95751.41;;;15.84;78.61
60479;BME280;46321;48.398;11.754;2023-08-06T07:35:21;95748.97;;;15.82;78.15
60479;BME280;46321;48.398;11.754;2023-08-06T07:37:46;95750.72;;;15.88;77.44
60479;BME280;46321;48.398;11.754;2023-08-06T07:40:11;95752.50;;;15.95;76.81
60479;BME280;46321;48.398;11.754;2023-08-06T07:42:36;95740.13;;;15.82;76.65
60479;BME280;46321;48.398;11.754;2023-08-06T07:45:02;95738.59;;;16.05;77.57
60479;BME280;46321;48.398;11.754;2023-08-06T07:47:27;95743.75;;;16.18;77.06
60479;BME280;46321;48.398;11.754;2023-08-06T07:49:52;95735.63;;;16.25;76.27
60479;BME280;46321;48.398;11.754;2023-08-06T07:52:17;95736.13;;;16.46;75.68
60479;BME280;46321;48.398;11.754;2023-08-06T07:54:43;95733.22;;;16.47;76.18
60479;BME280;46321;48.398;11.754;2023-08-06T07:57:08;95726.13;;;16.53;75.46
60479;BME280;46321;48.398;11.754;2023-08-06T07:59:33;95732.28;;;16.54;74.72
60479;BME280;46321;48.398;11.754;2023-08-06T08:01:58;95733.22;;;16.59;74.65
60479;BME280;46321;48.398;11.754;2023-08-06T08:04:24;95727.84;;;16.71;74.50
60479;BME280;46321;48.398;11.754;2023-08-06T08:06:49;95729.00;;;16.88;74.74
60479;BME280;46321;48.398;11.754;2023-08-06T08:09:14;95731.19;;;17.03;73.65
60479;BME280;46321;48.398;11.754;2023-08-06T08:11:40;95732.34;;;17.19;73.43
60479;BME280;46321;48.398;11.754;2023-08-06T08:14:05;95732.19;;;17.38;73.40
60479;BME280;46321;48.398;11.754;2023-08-06T08:16:30;95733.22;;;17.49;70.69
60479;BME280;46321;48.398;11.754;2023-08-06T08:18:56;95729.53;;;17.38;67.39
60479;BME280;46321;48.398;11.754;2023-08-06T08:21:21;95733.94;;;17.32;67.42
60479;BME280;46321;48.398;11.754;2023-08-06T08:23:46;95719.78;;;17.08;66.55
60479;BME280;46321;48.398;11.754;2023-08-06T08:26:11;95728.88;;;17.07;67.45
60479;BME280;46321;48.398;11.754;2023-08-06T08:28:36;95709.59;;;17.04;67.83
60479;BME280;46321;48.398;11.754;2023-08-06T08:31:02;95716.00;;;17.15;67.54
60479;BME280;46321;48.398;11.754;2023-08-06T08:33:27;95719.91;;;17.13;67.42
60479;BME280;46321;48.398;11.754;2023-08-06T08:35:52;95727.50;;;16.92;68.39
60479;BME280;46321;48.398;11.754;2023-08-06T08:38:17;95724.63;;;17.35;67.52
60479;BME280;46321;48.398;11.754;2023-08-06T08:40:45;95737.91;;;17.30;65.78
60479;BME280;46321;48.398;11.754;2023-08-06T08:43:12;95720.56;;;17.32;65.42
60479;BME280;46321;48.398;11.754;2023-08-06T08:45:39;95718.81;;;17.38;64.95
60479;BME280;46321;48.398;11.754;2023-08-06T08:48:04;95721.59;;;17.43;65.39
60479;BME280;46321;48.398;11.754;2023-08-06T08:50:29;95720.00;;;17.30;64.97
60479;BME280;46321;48.398;11.754;2023-08-06T08:52:55;95727.34;;;17.23;65.52
60479;BME280;46321;48.398;11.754;2023-08-06T08:55:20;95722.72;;;17.18;66.64
60479;BME280;46321;48.398;11.754;2023-08-06T08:57:46;95717.38;;;17.06;66.50
60479;BME280;46321;48.398;11.754;2023-08-06T09:00:12;95731.88;;;17.10;66.56
60479;BME280;46321;48.398;11.754;2023-08-06T09:02:39;95734.94;;;17.02;66.26
60479;BME280;46321;48.398;11.754;2023-08-06T09:05:05;95729.78;;;17.12;65.51
60479;BME280;46321;48.398;11.754;2023-08-06T09:07:41;95734.31;;;17.24;65.74
60479;BME280;46321;48.398;11.754;2023-08-06T09:10:07;95729.03;;;17.41;65.40
60479;BME280;46321;48.398;11.754;2023-08-06T09:12:35;95735.59;;;17.92;65.63
60479;BME280;46321;48.398;11.754;2023-08-06T09:15:00;95718.72;;;18.08;63.80
60479;BME280;46321;48.398;11.754;2023-08-06T09:17:28;95716.41;;;18.29;63.27
60479;BME280;46321;48.398;11.754;2023-08-06T09:19:54;95718.19;;;18.24;62.35
60479;BME280;46321;48.398;11.754;2023-08-06T09:22:19;95725.56;;;18.16;62.92
60479;BME280;46321;48.398;11.754;2023-08-06T09:24:44;95722.91;;;17.87;62.89
60479;BME280;46321;48.398;11.754;2023-08-06T09:27:12;95730.91;;;17.70;62.49
60479;BME280;46321;48.398;11.754;2023-08-06T09:29:44;95725.19;;;17.49;65.58
60479;BME280;46321;48.398;11.754;2023-08-06T09:32:10;95723.88;;;17.22;67.68
60479;BME280;46321;48.398;11.754;2023-08-06T09:34:35;95731.09;;;17.51;67.30
60479;BME280;46321;48.398;11.754;2023-08-06T09:37:03;95740.00;;;17.69;66.54
60479;BME280;46321;48.398;11.754;2023-08-06T09:39:29;95734.34;;;17.82;65.62
60479;BME280;46321;48.398;11.754;2023-08-06T09:41:58;95737.16;;;17.76;66.46
60479;BME280;46321;48.398;11.754;2023-08-06T09:44:24;95732.22;;;17.67;66.28
60479;BME280;46321;48.398;11.754;2023-08-06T09:46:57;95737.03;;;17.53;66.60
60479;BME280;46321;48.398;11.754;2023-08-06T09:49:26;95730.44;;;17.73;66.48
60479;BME280;46321;48.398;11.754;2023-08-06T09:51:54;95726.72;;;17.74;66.65
60479;BME280;46321;48.398;11.754;2023-08-06T09:54:24;95734.59;;;17.51;65.08
60479;BME280;46321;48.398;11.754;2023-08-06T09:56:51;95740.53;;;17.54;65.26
60479;BME280;46321;48.398;11.754;2023-08-06T09:59:16;95738.84;;;17.23;65.48
60479;BME280;46321;48.398;11.754;2023-08-06T10:01:42;95772.59;;;16.64;68.52
60479;BME280;46321;48.398;11.754;2023-08-06T10:04:08;95757.16;;;16.66;70.37
60479;BME280;46321;48.398;11.754;2023-08-06T10:06:34;95754.66;;;16.29;73.31
60479;BME280;46321;48.398;11.754;2023-08-06T10:09:01;95756.09;;;16.43;72.98
60479;BME280;46321;48.398;11.754;2023-08-06T10:11:26;95761.88;;;15.97;75.41
60479;BME280;46321;48.398;11.754;2023-08-06T10:13:58;95754.28;;;15.70;76.63
60479;BME280;46321;48.398;11.754;2023-08-06T10:16:24;95751.31;;;15.90;77.00
60479;BME280;46321;48.398;11.754;2023-08-06T10:18:49;95749.63;;;15.77;78.06
60479;BME280;46321;48.398;11.754;2023-08-06T10:21:15;95754.69;;;15.98;77.82
60479;BME280;46321;48.398;11.754;2023-08-06T10:23:41;95749.16;;;15.99;78.92
60479;BME280;46321;48.398;11.754;2023-08-06T10:26:06;95753.44;;;16.00;78.31
60479;BME280;46321;48.398;11.754;2023-08-06T10:28:35;95757.28;;;16.05;77.88
60479;BME280;46321;48.398;11.754;2023-08-06T10:31:01;95739.56;;;16.22;76.66
60479;BME280;46321;48.398;11.754;2023-08-06T10:33:39;95741.56;;;16.15;76.77
60479;BME280;46321;48.398;11.754;2023-08-06T10:36:05;95744.38;;;16.68;76.46
60479;BME280;46321;48.398;11.754;2023-08-06T10:38:34;95716.91;;;17.50;74.29
60479;BME280;46321;48.398;11.754;2023-08-06T10:41:02;95735.59;;;17.62;70.21
60479;BME280;46321;48.398;11.754;2023-08-06T10:43:28;95737.31;;;18.15;69.66
60479;BME280;46321;48.398;11.754;2023-08-06T10:45:54;95751.50;;;18.16;68.46
60479;BME280;46321;48.398;11.754;2023-08-06T10:48:35;95738.56;;;18.25;68.31
60479;BME280;46321;48.398;11.754;2023-08-06T10:51:06;95737.13;;;18.05;66.54
60479;BME280;46321;48.398;11.754;2023-08-06T10:53:31;95735.59;;;17.92;66.44
60479;BME280;46321;48.398;11.754;2023-08-06T10:55:57;95745.94;;;17.88;67.08
60479;BME280;46321;48.398;11.754;2023-08-06T10:58:22;95751.50;;;17.69;64.85
60479;BME280;46321;48.398;11.754;2023-08-06T11:00:47;95751.44;;;17.52;64.03
60479;BME280;46321;48.398;11.754;2023-08-06T11:03:13;95743.94;;;17.66;65.62
60479;BME280;46321;48.398;11.754;2023-08-06T11:05:41;95733.97;;;17.61;64.90
60479;BME280;46321;48.398;11.754;2023-08-06T11:08:06;95749.88;;;17.68;65.55
60479;BME280;46321;48.398;11.754;2023-08-06T11:10:34;95746.19;;;17.87;65.96
60479;BME280;46321;48.398;11.754;2023-08-06T11:13:03;95746.47;;;17.73;64.47
60479;BME280;46321;48.398;11.754;2023-08-06T11:15:28;95730.59;;;17.54;63.87
60479;BME280;46321;48.398;11.754;2023-08-06T11:17:54;95748.56;;;17.54;64.35
60479;BME280;46321;48.398;11.754;2023-08-06T11:20:20;95752.78;;;17.96;63.27
60479;BME280;46321;48.398;11.754;2023-08-06T11:22:45;95764.50;;;17.78;63.37
60479;BME280;46321;48.398;11.754;2023-08-06T11:25:10;95742.41;;;18.00;60.94
60479;BME280;46321;48.398;11.754;2023-08-06T11:27:35;95763.81;;;18.00;61.69
60479;BME280;46321;48.398;11.754;2023-08-06T11:30:01;95767.00;;;17.26;62.75
60479;BME280;46321;48.398;11.754;2023-08-06T11:32:26;95769.03;;;17.48;63.06
60479;BME280;46321;48.398;11.754;2023-08-06T11:34:53;95763.53;;;17.55;63.40
60479;BME280;46321;48.398;11.754;2023-08-06T11:37:20;95755.91;;;17.34;62.62
60479;BME280;46321;48.398;11.754;2023-08-06T11:39:47;95757.66;;;17.41;63.98
60479;BME280;46321;48.398;11.754;2023-08-06T11:42:15;95765.13;;;17.26;63.55
60479;BME280;46321;48.398;11.754;2023-08-06T11:44:40;95790.25;;;17.01;66.04
60479;BME280;46321;48.398;11.754;2023-08-06T11:47:11;95792.34;;;16.75;69.69
60479;BME280;46321;48.398;11.754;2023-08-06T11:52:21;95794.09;;;16.81;70.22
60479;BME280;46321;48.398;11.754;2023-08-06T11:54:59;95789.66;;;16.87;69.44
60479;BME280;46321;48.398;11.754;2023-08-06T11:57:24;95793.94;;;17.00;67.90
60479;BME280;46321;48.398;11.754;2023-08-06T11:59:49;95784.44;;;16.92;68.71
60479;BME280;46321;48.398;11.754;2023-08-06T12:02:15;95784.31;;;16.99;67.30
60479;BME280;46321;48.398;11.754;2023-08-06T12:04:59;95771.31;;;16.79;67.72
60479;BME280;46321;48.398;11.754;2023-08-06T12:07:28;95787.69;;;16.46;68.89
60479;BME280;46321;48.398;11.754;2023-08-06T12:09:53;95776.28;;;16.39;68.01
60479;BME280;46321;48.398;11.754;2023-08-06T12:12:18;95783.72;;;16.49;68.69
60479;BME280;46321;48.398;11.754;2023-08-06T12:14:44;95784.09;;;16.53;67.53
60479;BME280;46321;48.398;11.754;2023-08-06T12:17:09;95793.25;;;16.69;67.84
60479;BME280;46321;48.398;11.754;2023-08-06T12:19:34;95784.56;;;16.98;66.68
60479;BME280;46321;48.398;11.754;2023-08-06T12:21:59;95781.78;;;17.04;65.47
60479;BME280;46321;48.398;11.754;2023-08-06T12:24:25;95771.53;;;17.13;65.02
60479;BME280;46321;48.398;11.754;2023-08-06T12:26:50;95769.78;;;17.19;63.74
60479;BME280;46321;48.398;11.754;2023-08-06T12:29:16;95770.94;;;17.11;63.42
60479;BME280;46321;48.398;11.754;2023-08-06T12:31:41;95773.34;;;17.37;63.74
60479;BME280;46321;48.398;11.754;2023-08-06T12:34:06;95775.34;;;17.30;63.95
60479;BME280;46321;48.398;11.754;2023-08-06T12:36:31;95774.63;;;17.46;62.94
60479;BME280;46321;48.398;11.754;2023-08-06T12:38:56;95776.38;;;17.41;61.95
60479;BME280;46321;48.398;11.754;2023-08-06T12:41:21;95771.06;;;17.28;62.86
60479;BME280;46321;48.398;11.754;2023-08-06T12:43:46;95778.25;;;17.28;63.18
60479;BME280;46321;48.398;11.754;2023-08-06T12:46:12;95789.91;;;17.22;62.43
60479;BME280;46321;48.398;11.754;2023-08-06T12:48:38;95802.34;;;16.80;65.56
60479;BME280;46321;48.398;11.754;2023-08-06T12:51:03;95808.81;;;16.60;68.63